Dades meteomassalio
Diari Summary for Febrer 2, 2018 Units:  Metric    English   Both
« Previous Day
Next Day »
Diari Semanal Mensual Anual Personalitzat
  Maxima: Minima: Mijana:
Temperatura: -17.8 °C -16.2 °C -15.1 °C
Rosada: -17.8 °C -20.2 °C -17.9 °C
Humitat: Humidity % 44 % 71 %
Velocitat del vent: 0 km/h 11.9 km/h 45.4 km/h
Racha vent: 0 km/h - -
Vent:- - NW
Pressio: 0 hPa 34212.1 hPa -
Pluja: 0 mm    
Historical Graphs
 
 
Tabular Data for Febrer 2, 2018
Time Temperature Dew Point Pressure Wind Wind Speed Wind Gust Humidity Rainfall Rate (Hourly) solar Conditions
-17.8 °C -17.8 °C 0 hPa Calm     Humidity % 0 mm SolarRadiationWatts/m^2 W/m2 Conditions
00:04 -15.3 °C -17.3 °C 34246 hPa NNW 29.8 km/h 29.8 km/h 77 % 0 mm 0.0 W/m2 RA
00:09 -15.3 °C -17.3 °C 34256.2 hPa NNW 29.8 km/h 29.8 km/h 77 % 0 mm 0.0 W/m2 CLR
00:14 -15.3 °C -17.3 °C 34256.2 hPa NW 29.8 km/h 29.8 km/h 77 % 0 mm 0.0 W/m2 CLR
00:19 -15.3 °C -17.3 °C 34256.2 hPa NNW 26.9 km/h 26.9 km/h 77 % 0 mm 0.0 W/m2 CLR
00:24 -15.3 °C -17.3 °C 34256.2 hPa NNW 44.1 km/h 44.1 km/h 77 % 0 mm 0.0 W/m2 CLR
00:29 -15.3 °C -17.3 °C 34256.2 hPa NW 35.7 km/h 35.7 km/h 78 % 0 mm 0.0 W/m2 CLR
00:34 -15.3 °C -17.3 °C 34256.2 hPa NNW 15.6 km/h 15.6 km/h 78 % 0 mm 0.0 W/m2 CLR
00:39 -15.3 °C -17.3 °C 34246 hPa NNW 26.9 km/h 26.9 km/h 78 % 0 mm 0.0 W/m2 CLR
00:44 -15.3 °C -17.3 °C 34246 hPa NW 38.8 km/h 38.8 km/h 78 % 0 mm 0.0 W/m2 CLR
00:49 -15.3 °C -17.3 °C 34246 hPa NNW 38.8 km/h 38.8 km/h 78 % 0 mm 0.0 W/m2 CLR
00:54 -15.6 °C -17.6 °C 34246 hPa NW 29.8 km/h 29.8 km/h 78 % 0 mm 0.0 W/m2 CLR
00:59 -15.6 °C -17.6 °C 34246 hPa NW 29.8 km/h 29.8 km/h 78 % 0 mm 0.0 W/m2 CLR
01:04 -15.6 °C -17.4 °C 34246 hPa NW 41.7 km/h 41.7 km/h 79 % 0 mm 0.0 W/m2 CLR
01:09 -15.6 °C -17.6 °C 34235.8 hPa NW 50.7 km/h 50.7 km/h 78 % 0 mm 0.0 W/m2 CLR
01:14 -15.6 °C -17.4 °C 34235.8 hPa NW 44.7 km/h 44.7 km/h 79 % 0 mm 0.0 W/m2 CLR
01:19 -15.6 °C -17.6 °C 34235.8 hPa NW 35.7 km/h 35.7 km/h 78 % 0 mm 0.0 W/m2 CLR
01:24 -15.6 °C -17.6 °C 34235.8 hPa NW 36.2 km/h 36.2 km/h 78 % 0 mm 0.0 W/m2 CLR
01:29 -15.6 °C -17.6 °C 34235.8 hPa NW 47.6 km/h 47.6 km/h 78 % 0 mm 0.0 W/m2 CLR
01:34 -15.6 °C -17.6 °C 34235.8 hPa WNW 44.7 km/h 44.7 km/h 78 % 0 mm 0.0 W/m2 CLR
01:39 -15.6 °C -17.4 °C 34235.8 hPa NW 23.8 km/h 23.8 km/h 79 % 0 mm 0.0 W/m2 CLR
01:44 -15.6 °C -17.4 °C 34235.8 hPa WNW 32.8 km/h 32.8 km/h 79 % 0 mm 0.0 W/m2 CLR
01:49 -15.6 °C -17.4 °C 34222.3 hPa NW 38.8 km/h 38.8 km/h 79 % 0 mm 0.0 W/m2 CLR
01:54 -15.6 °C -17.4 °C 34222.3 hPa NW 35.7 km/h 35.7 km/h 79 % 0 mm 0.0 W/m2 CLR
01:59 -15.6 °C -17.4 °C 34235.8 hPa WNW 23.3 km/h 23.3 km/h 79 % 0 mm 0.0 W/m2 CLR
02:04 -15.6 °C -17.4 °C 34235.8 hPa NW 26.9 km/h 26.9 km/h 79 % 0 mm 0.0 W/m2 CLR
02:09 -15.9 °C -17.7 °C 34222.3 hPa NW 23.8 km/h 23.8 km/h 79 % 0 mm 0.0 W/m2 CLR
02:14 -15.9 °C -17.7 °C 34222.3 hPa West 25.9 km/h 25.9 km/h 79 % 0 mm 0.0 W/m2 CLR
02:19 -15.9 °C -17.7 °C 34222.3 hPa WNW 26.9 km/h 26.9 km/h 79 % 0 mm 0.0 W/m2 CLR
02:24 -15.9 °C -17.7 °C 34235.8 hPa WNW 20.9 km/h 20.9 km/h 80 % 0 mm 0.0 W/m2 CLR
02:29 -15.9 °C -17.7 °C 34235.8 hPa WNW 31.1 km/h 31.1 km/h 80 % 0 mm 0.0 W/m2 CLR
02:34 -15.9 °C -17.7 °C 34235.8 hPa NW 26.9 km/h 26.9 km/h 80 % 0 mm 0.0 W/m2 CLR
02:39 -15.9 °C -17.7 °C 34235.8 hPa NW 26.9 km/h 26.9 km/h 80 % 0 mm 0.0 W/m2 CLR
02:44 -15.9 °C -17.7 °C 34235.8 hPa NW 23.8 km/h 23.8 km/h 80 % 0 mm 0.0 W/m2 CLR
02:49 -15.9 °C -17.7 °C 34235.8 hPa WNW 29.8 km/h 29.8 km/h 80 % 0 mm 0.0 W/m2 CLR
02:54 -15.9 °C -17.7 °C 34235.8 hPa NW 35.7 km/h 35.7 km/h 80 % 0 mm 0.0 W/m2 CLR
02:59 -15.9 °C -17.6 °C 34235.8 hPa NW 26.9 km/h 26.9 km/h 81 % 0 mm 0.0 W/m2 CLR
03:04 -15.9 °C -17.6 °C 34235.8 hPa NW 32.8 km/h 32.8 km/h 81 % 0 mm 0.0 W/m2 CLR
03:09 -15.9 °C -17.6 °C 34235.8 hPa NW 32.8 km/h 32.8 km/h 81 % 0 mm 0.0 W/m2 CLR
03:14 -15.9 °C -17.6 °C 34235.8 hPa NW 36.2 km/h 36.2 km/h 81 % 0 mm 0.0 W/m2 CLR
03:19 -15.9 °C -17.6 °C 34235.8 hPa NW 26.9 km/h 26.9 km/h 81 % 0 mm 0.0 W/m2 CLR
03:24 -15.9 °C -17.6 °C 34235.8 hPa NW 23.8 km/h 23.8 km/h 81 % 0 mm 0.0 W/m2 CLR
03:29 -15.9 °C -17.6 °C 34235.8 hPa WNW 23.8 km/h 23.8 km/h 81 % 0 mm 0.0 W/m2 CLR
03:34 -15.9 °C -17.6 °C 34235.8 hPa NW 26.9 km/h 26.9 km/h 81 % 0 mm 0.0 W/m2 CLR
03:39 -15.9 °C -17.6 °C 34222.3 hPa NNW 31.1 km/h 31.1 km/h 81 % 0 mm 0.0 W/m2 CLR
03:45 -15.9 °C -17.6 °C 34222.3 hPa NW 32.8 km/h 32.8 km/h 81 % 0 mm 0.0 W/m2 CLR
03:50 -15.9 °C -17.4 °C 34235.8 hPa NW 18.2 km/h 18.2 km/h 82 % 0 mm 0.0 W/m2 CLR
03:55 -15.9 °C -17.4 °C 34235.8 hPa NNW 32.8 km/h 32.8 km/h 82 % 0 mm 0.0 W/m2 CLR
04:00 -15.9 °C -17.4 °C 34235.8 hPa WNW 23.8 km/h 23.8 km/h 82 % 0 mm 0.0 W/m2 CLR
04:05 -15.9 °C -17.4 °C 34222.3 hPa NW 26.9 km/h 26.9 km/h 82 % 0 mm 0.0 W/m2 CLR
04:10 -15.9 °C -17.4 °C 34235.8 hPa NW 29.8 km/h 29.8 km/h 82 % 0 mm 0.0 W/m2 CLR
04:15 -15.9 °C -17.4 °C 34222.3 hPa NW 28.5 km/h 28.5 km/h 82 % 0 mm 0.0 W/m2 CLR
04:20 -15.9 °C -17.4 °C 34222.3 hPa NNW 26.9 km/h 26.9 km/h 82 % 0 mm 0.0 W/m2 CLR
04:25 -15.9 °C -17.4 °C 34222.3 hPa NNW 29.8 km/h 29.8 km/h 83 % 0 mm 0.0 W/m2 CLR
04:30 -15.9 °C -17.4 °C 34222.3 hPa NW 28.5 km/h 28.5 km/h 83 % 0 mm 0.0 W/m2 CLR
04:35 -15.9 °C -17.4 °C 34222.3 hPa NW 26.9 km/h 26.9 km/h 83 % 0 mm 0.0 W/m2 CLR
04:40 -15.9 °C -17.4 °C 34222.3 hPa NW 23.8 km/h 23.8 km/h 83 % 0 mm 0.0 W/m2 CLR
04:45 -15.9 °C -17.4 °C 34222.3 hPa North 29.8 km/h 29.8 km/h 83 % 0 mm 0.0 W/m2 CLR
04:50 -15.9 °C -17.3 °C 34212.1 hPa NW 23.8 km/h 23.8 km/h 84 % 0 mm 0.0 W/m2 CLR
04:55 -15.9 °C -17.3 °C 34212.1 hPa NW 28.5 km/h 28.5 km/h 84 % 0 mm 0.0 W/m2 CLR
05:00 -15.9 °C -17.3 °C 34212.1 hPa NW 23.8 km/h 23.8 km/h 84 % 0 mm 0.0 W/m2 CLR
05:05 -15.9 °C -17.3 °C 34212.1 hPa NNW 23.8 km/h 23.8 km/h 84 % 0 mm 0.0 W/m2 CLR
05:10 -16.2 °C -17.6 °C 34212.1 hPa NW 29.8 km/h 29.8 km/h 84 % 0 mm 0.0 W/m2 CLR
05:15 -16.2 °C -17.5 °C 34212.1 hPa NW 20.9 km/h 20.9 km/h 85 % 0 mm 0.0 W/m2 CLR
05:20 -16.2 °C -17.6 °C 34212.1 hPa NW 23.8 km/h 23.8 km/h 84 % 0 mm 0.0 W/m2 CLR
05:25 -16.2 °C -17.5 °C 34212.1 hPa NNW 23.8 km/h 23.8 km/h 85 % 0 mm 0.0 W/m2 CLR
05:30 -16.2 °C -17.5 °C 34212.1 hPa NW 23.8 km/h 23.8 km/h 85 % 0 mm 0.0 W/m2 CLR
05:35 -16.2 °C -17.5 °C 34212.1 hPa NW 26.9 km/h 26.9 km/h 85 % 0 mm 0.0 W/m2 CLR
05:40 -15.9 °C -17.2 °C 34212.1 hPa NNW 33.6 km/h 33.6 km/h 85 % 0 mm 0.0 W/m2 CLR
05:45 -15.9 °C -17.2 °C 34212.1 hPa NNW 38.8 km/h 38.8 km/h 85 % 0 mm 0.0 W/m2 CLR
05:50 -15.9 °C -17.2 °C 34212.1 hPa NW 29.8 km/h 29.8 km/h 85 % 0 mm 0.0 W/m2 CLR
05:55 -15.9 °C -17.2 °C 34212.1 hPa NW 32.8 km/h 32.8 km/h 85 % 0 mm 0.0 W/m2 CLR
06:00 -15.9 °C -17.2 °C 34212.1 hPa NW 23.8 km/h 23.8 km/h 85 % 0 mm 0.0 W/m2 CLR
06:05 -15.9 °C -17.2 °C 34212.1 hPa NW 25.9 km/h 25.9 km/h 85 % 0 mm 0.0 W/m2 CLR
06:10 -15.9 °C -17.2 °C 34212.1 hPa NW 23.8 km/h 23.8 km/h 85 % 0 mm 0.0 W/m2 CLR
06:15 -16.2 °C -17.5 °C 34212.1 hPa NNW 29.8 km/h 29.8 km/h 85 % 0 mm 0.0 W/m2 CLR
06:20 -16.2 °C -17.5 °C 34212.1 hPa NNW 29.8 km/h 29.8 km/h 85 % 0 mm 0.0 W/m2 CLR
06:25 -16.2 °C -17.5 °C 34212.1 hPa NW 23.8 km/h 23.8 km/h 85 % 0 mm 0.0 W/m2 CLR
06:30 -16.2 °C -17.5 °C 34222.3 hPa NW 15.6 km/h 15.6 km/h 85 % 0 mm 0.0 W/m2 CLR
06:35 -16.2 °C -17.5 °C 34222.3 hPa North 32.8 km/h 32.8 km/h 85 % 0 mm 0.0 W/m2 CLR
06:40 -15.9 °C -17.2 °C 34222.3 hPa NW 11.9 km/h 11.9 km/h 85 % 0 mm 0.0 W/m2 CLR
06:45 -15.9 °C -17.2 °C 34222.3 hPa NW 26.9 km/h 26.9 km/h 85 % 0 mm 0.0 W/m2 CLR
06:50 -15.9 °C -17.2 °C 34222.3 hPa NNW 15.6 km/h 15.6 km/h 85 % 0 mm 0.0 W/m2 CLR
06:55 -15.9 °C -17.2 °C 34222.3 hPa NW 15 km/h 15 km/h 85 % 0 mm 0.0 W/m2 CLR
07:00 -15.9 °C -17.2 °C 34222.3 hPa NW 23.8 km/h 23.8 km/h 85 % 0 mm 0.0 W/m2 CLR
07:05 -15.9 °C -17.2 °C 34222.3 hPa NW 26.9 km/h 26.9 km/h 85 % 0 mm 0.0 W/m2 CLR
07:10 -15.9 °C -17.2 °C 34222.3 hPa NW 26.9 km/h 26.9 km/h 85 % 0 mm 0.0 W/m2 CLR
07:15 -15.9 °C -17.2 °C 34222.3 hPa NNW 23.8 km/h 23.8 km/h 85 % 0 mm 0.0 W/m2 CLR
07:20 -15.9 °C -17.2 °C 34235.8 hPa WNW 29.8 km/h 29.8 km/h 85 % 0 mm 0.0 W/m2 CLR
07:25 -15.9 °C -17.2 °C 34235.8 hPa NW 32.8 km/h 32.8 km/h 85 % 0 mm 0.0 W/m2 CLR
07:30 -15.9 °C -17.2 °C 34235.8 hPa NW 31.1 km/h 31.1 km/h 85 % 0 mm 0.0 W/m2 CLR
07:35 -16.2 °C -17.5 °C 34235.8 hPa NNW 38.8 km/h 38.8 km/h 85 % 0 mm 0.0 W/m2 CLR
07:40 -16.2 °C -17.4 °C 34235.8 hPa NW 35.7 km/h 35.7 km/h 86 % 0 mm 0.0 W/m2 CLR
07:45 -16.2 °C -17.4 °C 34235.8 hPa NW 38.8 km/h 38.8 km/h 86 % 0 mm 0.0 W/m2 CLR
07:50 -16.2 °C -17.4 °C 34235.8 hPa NNW 47.6 km/h 47.6 km/h 86 % 0 mm 0.0 W/m2 CLR
07:55 -16.2 °C -17.4 °C 34235.8 hPa NNW 35.7 km/h 35.7 km/h 86 % 0 mm 0.0 W/m2 CLR
08:00 -16.2 °C -17.4 °C 34222.3 hPa NNW 47.6 km/h 47.6 km/h 86 % 0 mm 0.0 W/m2 OVC
08:05 -16.2 °C -17.4 °C 34235.8 hPa NNW 38.8 km/h 38.8 km/h 86 % 0 mm 0.0 W/m2 OVC
08:10 -16.2 °C -17.4 °C 34235.8 hPa NNW 50.7 km/h 50.7 km/h 86 % 0 mm 0.0 W/m2 OVC
08:15 -16.2 °C -17.4 °C 34235.8 hPa NW 41.7 km/h 41.7 km/h 86 % 0 mm 0.0 W/m2 OVC
08:20 -16.2 °C -17.4 °C 34235.8 hPa NNW 47.6 km/h 47.6 km/h 86 % 0 mm 5.0 W/m2 OVC
08:25 -16.2 °C -17.3 °C 34235.8 hPa NNW 33.6 km/h 33.6 km/h 87 % 0 mm 7.0 W/m2 BKN
08:30 -16.2 °C -17.3 °C 34235.8 hPa NNW 33.6 km/h 33.6 km/h 87 % 0 mm 9.0 W/m2 BKN
08:35 -16.2 °C -17.3 °C 34235.8 hPa NNW 35.7 km/h 35.7 km/h 87 % 0 mm 14.0 W/m2 BKN
08:40 -16.2 °C -17.3 °C 34235.8 hPa NW 35.7 km/h 35.7 km/h 87 % 0 mm 19.0 W/m2 BKN
08:45 -16.2 °C -17.3 °C 34246 hPa NW 28.5 km/h 28.5 km/h 87 % 0 mm 25.0 W/m2 BKN
08:50 -16.2 °C -17.3 °C 34246 hPa WNW 47.6 km/h 47.6 km/h 87 % 0 mm 30.0 W/m2 BKN
08:55 -16.2 °C -17.4 °C 34246 hPa North 33.6 km/h 33.6 km/h 86 % 0 mm 30.0 W/m2 BKN
09:00 -16.2 °C -17.4 °C 34246 hPa NW 38.8 km/h 38.8 km/h 86 % 0 mm 32.0 W/m2 BKN
09:05 -16.2 °C -17.4 °C 34256.2 hPa West 33.6 km/h 33.6 km/h 86 % 0 mm 32.0 W/m2 BKN
09:10 -16.2 °C -17.4 °C 34256.2 hPa NW 29.8 km/h 29.8 km/h 86 % 0 mm 33.0 W/m2 BKN
09:15 -16.2 °C -17.4 °C 34256.2 hPa NW 26.9 km/h 26.9 km/h 86 % 0 mm 37.0 W/m2 BKN
09:20 -16.2 °C -17.4 °C 34256.2 hPa NW 29.8 km/h 29.8 km/h 86 % 0 mm 42.0 W/m2 BKN
09:25 -16.2 °C -17.5 °C 34256.2 hPa NW 11.9 km/h 11.9 km/h 85 % 0 mm 42.0 W/m2 BKN
09:30 -16.2 °C -17.5 °C 34269.7 hPa NNW 26.9 km/h 26.9 km/h 85 % 0 mm 49.0 W/m2 BKN
09:36 -15.9 °C -17.3 °C 34256.2 hPa NNW 35.7 km/h 35.7 km/h 84 % 0 mm 54.0 W/m2 SCT
09:41 -15.9 °C -17.3 °C 34269.7 hPa WNW 23.8 km/h 23.8 km/h 84 % 0 mm 53.0 W/m2 SCT
09:46 -15.9 °C -17.3 °C 34256.2 hPa NW 32.8 km/h 32.8 km/h 84 % 0 mm 62.0 W/m2 SCT
09:51 -15.9 °C -17.3 °C 34256.2 hPa NW 29.8 km/h 29.8 km/h 84 % 0 mm 67.0 W/m2 SCT
09:56 -15.9 °C -17.3 °C 34269.7 hPa NNW 29.8 km/h 29.8 km/h 84 % 0 mm 77.0 W/m2 FEW
10:01 -15.9 °C -17.3 °C 34269.7 hPa NW 26.9 km/h 26.9 km/h 84 % 0 mm 84.0 W/m2 FEW
10:06 -15.9 °C -17.4 °C 34269.7 hPa NNW 26.9 km/h 26.9 km/h 83 % 0 mm 91.0 W/m2 FEW
10:11 -15.9 °C -17.4 °C 34269.7 hPa NW 29.8 km/h 29.8 km/h 83 % 0 mm 120.0 W/m2 CLR
10:16 -15.9 °C -17.4 °C 34269.7 hPa NNW 35.7 km/h 35.7 km/h 83 % 0 mm 127.0 W/m2 CLR
10:21 -15.9 °C -17.4 °C 34269.7 hPa NW 29.8 km/h 29.8 km/h 83 % 0 mm 204.0 W/m2 CLR
10:26 -15.6 °C -17.1 °C 34256.2 hPa NW 23.3 km/h 23.3 km/h 83 % 0 mm 155.0 W/m2 CLR
10:31 -15.6 °C -17.2 °C 34256.2 hPa NW 38.8 km/h 38.8 km/h 82 % 0 mm 118.0 W/m2 CLR
10:36 -15.6 °C -17.3 °C 34256.2 hPa NW 32.8 km/h 32.8 km/h 81 % 0 mm 163.0 W/m2 CLR
10:41 -15.6 °C -17.3 °C 34256.2 hPa NNW 41.7 km/h 41.7 km/h 81 % 0 mm 144.0 W/m2 CLR
10:46 -15.6 °C -17.3 °C 34256.2 hPa NW 47.6 km/h 47.6 km/h 81 % 0 mm 158.0 W/m2 CLR
10:51 -15.6 °C -17.3 °C 34256.2 hPa NW 38.8 km/h 38.8 km/h 81 % 0 mm 167.0 W/m2 CLR
10:56 -15.6 °C -17.3 °C 34256.2 hPa NW 47.6 km/h 47.6 km/h 80 % 0 mm 142.0 W/m2 CLR
11:01 -15.3 °C -17.1 °C 34256.2 hPa NNW 41.7 km/h 41.7 km/h 80 % 0 mm 165.0 W/m2 CLR
11:06 -15.3 °C -17.2 °C 34269.7 hPa NNW 44.7 km/h 44.7 km/h 79 % 0 mm 149.0 W/m2 CLR
11:11 -15.3 °C -17.2 °C 34269.7 hPa NW 50.7 km/h 50.7 km/h 79 % 0 mm 171.0 W/m2 CLR
11:16 -15.3 °C -17.2 °C 34269.7 hPa NNW 41.7 km/h 41.7 km/h 79 % 0 mm 188.0 W/m2 CLR
11:21 -15.3 °C -17.2 °C 34269.7 hPa NNW 56.6 km/h 56.6 km/h 79 % 0 mm 295.0 W/m2 CLR
11:26 -15.3 °C -17.2 °C 34269.7 hPa NW 68.6 km/h 68.6 km/h 79 % 0 mm 199.0 W/m2 CLR
11:31 -15.3 °C -17.3 °C 34279.9 hPa North 51.8 km/h 51.8 km/h 78 % 0 mm 193.0 W/m2 CLR
11:36 -15.3 °C -17.2 °C 34269.7 hPa NNW 38.8 km/h 38.8 km/h 79 % 0 mm 209.0 W/m2 CLR
11:41 -15 °C -16.9 °C 34269.7 hPa NNW 47.6 km/h 47.6 km/h 78 % 0 mm 195.0 W/m2 CLR
11:46 -15 °C -16.9 °C 34269.7 hPa North 54.4 km/h 54.4 km/h 78 % 0 mm 181.0 W/m2 CLR
11:51 -15 °C -17.1 °C 34269.7 hPa North 59.5 km/h 59.5 km/h 77 % 0 mm 415.0 W/m2 CLR
11:56 -14.7 °C -16.8 °C 34269.7 hPa NNW 53.6 km/h 53.6 km/h 76 % 0 mm 269.0 W/m2 CLR
12:01 -14.7 °C -16.8 °C 34269.7 hPa North 41.7 km/h 41.7 km/h 76 % 0 mm 332.0 W/m2 CLR
12:06 -14.4 °C -16.7 °C 34269.7 hPa NW 53.6 km/h 53.6 km/h 75 % 0 mm 406.0 W/m2 CLR
12:11 -14.4 °C -16.6 °C 34269.7 hPa NNW 59.5 km/h 59.5 km/h 76 % 0 mm 480.0 W/m2 CLR
12:16 -14.4 °C -16.7 °C 34269.7 hPa North 62.1 km/h 62.1 km/h 75 % 0 mm 445.0 W/m2 CLR
12:21 -14.1 °C -16.6 °C 34269.7 hPa North 50.7 km/h 50.7 km/h 73 % 0 mm 527.0 W/m2 CLR
12:26 -14.1 °C -16.5 °C 34269.7 hPa North 47.6 km/h 47.6 km/h 74 % 0 mm 512.0 W/m2 CLR
12:31 -14.1 °C -16.6 °C 34256.2 hPa NNW 53.6 km/h 53.6 km/h 73 % 0 mm 434.0 W/m2 CLR
12:36 -13.8 °C -16.4 °C 34256.2 hPa NNW 59.5 km/h 59.5 km/h 72 % 0 mm 397.0 W/m2 CLR
12:41 -13.8 °C -16.4 °C 34256.2 hPa NNW 65.5 km/h 65.5 km/h 72 % 0 mm 387.0 W/m2 CLR
12:46 -13.8 °C -16.4 °C 34256.2 hPa NNW 65.5 km/h 65.5 km/h 72 % 0 mm 359.0 W/m2 CLR
12:51 -14.1 °C -16.9 °C 34256.2 hPa North 68.6 km/h 68.6 km/h 70 % 0 mm 366.0 W/m2 CLR
12:56 -14.1 °C -16.9 °C 34256.2 hPa NNW 68.6 km/h 68.6 km/h 70 % 0 mm 429.0 W/m2 CLR
13:01 -13.8 °C -16.6 °C 34246 hPa North 62.6 km/h 62.6 km/h 70 % 0 mm 612.0 W/m2 CLR
13:06 -13.4 °C -16.3 °C 34246 hPa NNW 59.5 km/h 59.5 km/h 70 % 0 mm 580.0 W/m2 CLR
13:11 -13.4 °C -16.6 °C 34246 hPa North 69.8 km/h 69.8 km/h 68 % 0 mm 506.0 W/m2 CLR
13:16 -13.4 °C -16.6 °C 34246 hPa NNW 68.6 km/h 68.6 km/h 68 % 0 mm 445.0 W/m2 CLR
13:21 -13.2 °C -16.2 °C 34246 hPa North 59.5 km/h 59.5 km/h 68 % 0 mm 381.0 W/m2 CLR
13:26 -13.2 °C -16.3 °C 34246 hPa North 77.7 km/h 77.7 km/h 67 % 0 mm 468.0 W/m2 CLR
13:31 -13.2 °C -16.6 °C 34246 hPa North 53.6 km/h 53.6 km/h 65 % 0 mm 561.0 W/m2 CLR
13:36 -13.2 °C -16.8 °C 34246 hPa North 65.5 km/h 65.5 km/h 63 % 0 mm 504.0 W/m2 CLR
13:41 -13.2 °C -17 °C 34246 hPa NNW 59.5 km/h 59.5 km/h 62 % 0 mm 448.0 W/m2 CLR
13:46 -13.2 °C -16.8 °C 34235.8 hPa NNW 62.1 km/h 62.1 km/h 63 % 0 mm 425.0 W/m2 CLR
13:51 -13.2 °C -17 °C 34235.8 hPa North 62.6 km/h 62.6 km/h 62 % 0 mm 471.0 W/m2 CLR
13:56 -13.2 °C -17.2 °C 34235.8 hPa North 59.5 km/h 59.5 km/h 60 % 0 mm 464.0 W/m2 CLR
14:01 -12.8 °C -16.9 °C 34235.8 hPa NNW 77.4 km/h 77.4 km/h 60 % 0 mm 559.0 W/m2 CLR
14:06 -12.8 °C -17.1 °C 34235.8 hPa NNW 77.4 km/h 77.4 km/h 59 % 0 mm 533.0 W/m2 CLR
14:11 -12.8 °C -17.1 °C 34235.8 hPa NNW 62.6 km/h 62.6 km/h 59 % 0 mm 524.0 W/m2 CLR
14:16 -12.6 °C -16.9 °C 34235.8 hPa North 68.6 km/h 68.6 km/h 58 % 0 mm 520.0 W/m2 CLR
14:21 -12.8 °C -17.2 °C 34235.8 hPa NNW 54.4 km/h 54.4 km/h 58 % 0 mm 517.0 W/m2 CLR
14:26 -12.8 °C -17.4 °C 34222.3 hPa NNW 53.6 km/h 53.6 km/h 56 % 0 mm 513.0 W/m2 CLR
14:31 -12.6 °C -17.4 °C 34235.8 hPa North 64.7 km/h 64.7 km/h 54 % 0 mm 406.0 W/m2 CLR
14:36 -12.6 °C -17.4 °C 34235.8 hPa NNW 62.6 km/h 62.6 km/h 54 % 0 mm 501.0 W/m2 CLR
14:41 -12.6 °C -17.6 °C 34235.8 hPa North 51.8 km/h 51.8 km/h 53 % 0 mm 492.0 W/m2 CLR
14:46 -12.2 °C -17.6 °C 34222.3 hPa North 74.5 km/h 74.5 km/h 51 % 0 mm 483.0 W/m2 CLR
14:51 -12.6 °C -17.9 °C 34222.3 hPa NNW 74.5 km/h 74.5 km/h 51 % 0 mm 476.0 W/m2 CLR
14:56 -12.2 °C -17.9 °C 34222.3 hPa North 56.6 km/h 56.6 km/h 49 % 0 mm 464.0 W/m2 CLR
15:01 -12.2 °C -17.6 °C 34222.3 hPa NNW 68.6 km/h 68.6 km/h 51 % 0 mm 457.0 W/m2 CLR
15:06 -12.6 °C -18.4 °C 34222.3 hPa NNW 65.5 km/h 65.5 km/h 48 % 0 mm 448.0 W/m2 CLR
15:11 -12.6 °C -18.4 °C 34222.3 hPa North 59.5 km/h 59.5 km/h 48 % 0 mm 441.0 W/m2 CLR
15:16 -12.2 °C -17.9 °C 34222.3 hPa WNW 54.4 km/h 54.4 km/h 49 % 0 mm 429.0 W/m2 CLR
15:21 -12.2 °C -18.2 °C 34222.3 hPa North 51.8 km/h 51.8 km/h 47 % 0 mm 422.0 W/m2 CLR
15:26 -12.6 °C -18.5 °C 34222.3 hPa NNW 68.6 km/h 68.6 km/h 47 % 0 mm 411.0 W/m2 CLR
15:31 -12.6 °C -18.5 °C 34222.3 hPa North 59.5 km/h 59.5 km/h 47 % 0 mm 401.0 W/m2 CLR
15:36 -12.2 °C -18.6 °C 34222.3 hPa North 59.5 km/h 59.5 km/h 45 % 0 mm 392.0 W/m2 CLR
15:41 -12.6 °C -19 °C 34235.8 hPa NNW 89.3 km/h 89.3 km/h 44 % 0 mm 378.0 W/m2 CLR
15:46 -12.6 °C -18.8 °C 34235.8 hPa NNW 74.5 km/h 74.5 km/h 45 % 0 mm 367.0 W/m2 CLR
15:51 -12.6 °C -18.7 °C 34235.8 hPa North 83.4 km/h 83.4 km/h 46 % 0 mm 359.0 W/m2 CLR
15:56 -12.6 °C -18.8 °C 34235.8 hPa NNW 86.4 km/h 86.4 km/h 45 % 0 mm 346.0 W/m2 CLR
16:01 -12.6 °C -18.7 °C 34235.8 hPa NNW 68.6 km/h 68.6 km/h 46 % 0 mm 334.0 W/m2 CLR
16:06 -12.6 °C -18.5 °C 34235.8 hPa NNW 68.6 km/h 68.6 km/h 47 % 0 mm 322.0 W/m2 CLR
16:11 -12.8 °C -19.1 °C 34235.8 hPa North 68.6 km/h 68.6 km/h 45 % 0 mm 308.0 W/m2 CLR
16:16 -12.8 °C -19.1 °C 34235.8 hPa NW 65.5 km/h 65.5 km/h 45 % 0 mm 297.0 W/m2 CLR
16:21 -12.8 °C -19.1 °C 34246 hPa North 68.6 km/h 68.6 km/h 45 % 0 mm 285.0 W/m2 CLR
16:26 -12.8 °C -19.3 °C 34246 hPa North 86.4 km/h 86.4 km/h 44 % 0 mm 267.0 W/m2 CLR
16:31 -12.8 °C -19.1 °C 34246 hPa North 74.5 km/h 74.5 km/h 45 % 0 mm 251.0 W/m2 CLR
16:36 -13.2 °C -19.4 °C 34256.2 hPa North 77.4 km/h 77.4 km/h 45 % 0 mm 237.0 W/m2 CLR
16:41 -13.2 °C -19.2 °C 34256.2 hPa NNW 71.5 km/h 71.5 km/h 46 % 0 mm 221.0 W/m2 CLR
16:46 -13.2 °C -19.4 °C 34256.2 hPa North 83.4 km/h 83.4 km/h 45 % 0 mm 202.0 W/m2 CLR
16:51 -13.2 °C -19.2 °C 34256.2 hPa NNW 69.8 km/h 69.8 km/h 46 % 0 mm 186.0 W/m2 CLR
16:56 -13.2 °C -19.2 °C 34256.2 hPa NNW 83.4 km/h 83.4 km/h 46 % 0 mm 171.0 W/m2 CLR
17:01 -13.4 °C -19.5 °C 34256.2 hPa NNW 89.3 km/h 89.3 km/h 46 % 0 mm 153.0 W/m2 CLR
17:06 -13.4 °C -19.5 °C 34256.2 hPa NNW 80.5 km/h 80.5 km/h 46 % 0 mm 135.0 W/m2 CLR
17:11 -13.4 °C -19.3 °C 34256.2 hPa North 64.7 km/h 64.7 km/h 47 % 0 mm 120.0 W/m2 CLR
17:16 -13.4 °C -19.7 °C 34256.2 hPa North 74.5 km/h 74.5 km/h 45 % 0 mm 105.0 W/m2 CLR
17:17 -13.4 °C -19.5 °C 34256.2 hPa NNW 68.6 km/h 68.6 km/h 46 % 0 mm 102.0 W/m2 CLR
17:22 -13.4 °C -19.5 °C 34256.2 hPa North 68.6 km/h 68.6 km/h 46 % 0 mm 88.0 W/m2 CLR
17:27 -13.8 °C -19.6 °C 34256.2 hPa NNW 67.3 km/h 67.3 km/h 47 % 0 mm 72.0 W/m2 FEW
17:32 -13.8 °C -19.8 °C 34269.7 hPa NNW 71.5 km/h 71.5 km/h 46 % 0 mm 56.0 W/m2 SCT
17:37 -13.8 °C -19.6 °C 34256.2 hPa NW 68.6 km/h 68.6 km/h 47 % 0 mm 42.0 W/m2 SCT
17:42 -13.8 °C -19.6 °C 34269.7 hPa NW 65.5 km/h 65.5 km/h 47 % 0 mm 35.0 W/m2 BKN
17:47 -13.8 °C -19.6 °C 34269.7 hPa NNW 50.7 km/h 50.7 km/h 47 % 0 mm 26.0 W/m2 BKN
17:52 -14.1 °C -19.8 °C 34269.7 hPa NNW 56.6 km/h 56.6 km/h 48 % 0 mm 19.0 W/m2 BKN
17:57 -14.1 °C -19.8 °C 34269.7 hPa North 59.5 km/h 59.5 km/h 48 % 0 mm 14.0 W/m2 BKN
18:02 -14.1 °C -19.8 °C 34269.7 hPa North 54.4 km/h 54.4 km/h 48 % 0 mm 12.0 W/m2 BKN
18:07 -14.1 °C -19.6 °C 34279.9 hPa North 50.7 km/h 50.7 km/h 49 % 0 mm 9.0 W/m2 BKN
18:12 -14.4 °C -19.9 °C 34279.9 hPa NW 49.2 km/h 49.2 km/h 49 % 0 mm 7.0 W/m2 BKN
18:17 -14.4 °C -19.9 °C 34293.4 hPa North 57 km/h 57 km/h 49 % 0 mm 5.0 W/m2 OVC
18:22 -14.4 °C -20.1 °C 34293.4 hPa North 50.7 km/h 50.7 km/h 48 % 0 mm 0.0 W/m2 OVC
18:27 -14.4 °C -20.1 °C 34293.4 hPa NNW 47.6 km/h 47.6 km/h 48 % 0 mm 0.0 W/m2 CLR
18:32 -14.4 °C -19.9 °C 34303.6 hPa North 53.6 km/h 53.6 km/h 49 % 0 mm 0.0 W/m2 CLR
18:37 -14.7 °C -20.2 °C 34303.6 hPa NNW 50.7 km/h 50.7 km/h 49 % 0 mm 0.0 W/m2 CLR
18:42 -14.7 °C -20.2 °C 34303.6 hPa North 56.6 km/h 56.6 km/h 49 % 0 mm 0.0 W/m2 CLR
18:47 -14.7 °C -20.1 °C 34313.7 hPa NNW 38.8 km/h 38.8 km/h 50 % 0 mm 0.0 W/m2 CLR
18:52 -14.7 °C -20.1 °C 34313.7 hPa North 50.7 km/h 50.7 km/h 50 % 0 mm 0.0 W/m2 CLR
18:58 -14.7 °C -20.2 °C 34327.3 hPa NW 53.6 km/h 53.6 km/h 49 % 0 mm 0.0 W/m2 CLR
19:03 -14.7 °C -20.1 °C 34327.3 hPa NNW 47.6 km/h 47.6 km/h 50 % 0 mm 0.0 W/m2 CLR
19:08 -14.7 °C -20.1 °C 34327.3 hPa NW 50.7 km/h 50.7 km/h 50 % 0 mm 0.0 W/m2 CLR
19:13 -14.7 °C -20.1 °C 34337.4 hPa NNW 38.8 km/h 38.8 km/h 50 % 0 mm 0.0 W/m2 CLR
19:18 -14.7 °C -20.1 °C 34337.4 hPa North 51.8 km/h 51.8 km/h 50 % 0 mm 0.0 W/m2 CLR
19:23 -14.7 °C -20.1 °C 34337.4 hPa North 62.6 km/h 62.6 km/h 50 % 0 mm 0.0 W/m2 CLR
19:28 -14.7 °C -19.9 °C 34337.4 hPa North 77.7 km/h 77.7 km/h 51 % 0 mm 0.0 W/m2 CLR
19:33 -14.7 °C -19.8 °C 34347.6 hPa NNW 71.5 km/h 71.5 km/h 52 % 0 mm 0.0 W/m2 CLR
19:38 -15 °C -19.9 °C 34347.6 hPa NNW 59.5 km/h 59.5 km/h 53 % 0 mm 0.0 W/m2 CLR
19:43 -15 °C -19.6 °C 34361.1 hPa NNW 62.1 km/h 62.1 km/h 55 % 0 mm 0.0 W/m2 CLR
19:48 -15 °C -19.5 °C 34361.1 hPa NNW 71.5 km/h 71.5 km/h 56 % 0 mm 0.0 W/m2 CLR
19:53 -15 °C -19.3 °C 34361.1 hPa NNW 47.6 km/h 47.6 km/h 57 % 0 mm 0.0 W/m2 CLR
19:58 -15 °C -19.1 °C 34361.1 hPa NNW 53.6 km/h 53.6 km/h 59 % 0 mm 0.0 W/m2 CLR
20:03 -15 °C -18.9 °C 34361.1 hPa North 36.2 km/h 36.2 km/h 60 % 0 mm 0.0 W/m2 CLR
20:08 -15.3 °C -18.9 °C 34371.3 hPa NNW 56.6 km/h 56.6 km/h 63 % 0 mm 0.0 W/m2 CLR
20:13 -15.3 °C -18.8 °C 34371.3 hPa NNW 46.7 km/h 46.7 km/h 64 % 0 mm 0.0 W/m2 CLR
20:18 -15.3 °C -18.5 °C 34371.3 hPa NW 53.6 km/h 53.6 km/h 66 % 0 mm 0.0 W/m2 CLR
20:23 -15.3 °C -18.4 °C 34384.8 hPa NNW 44.7 km/h 44.7 km/h 67 % 0 mm 0.0 W/m2 CLR
20:28 -15.3 °C -18.4 °C 34384.8 hPa NNW 50.7 km/h 50.7 km/h 67 % 0 mm 0.0 W/m2 CLR
20:33 -15.3 °C -18.4 °C 34384.8 hPa NNW 54.4 km/h 54.4 km/h 67 % 0 mm 0.0 W/m2 CLR
20:38 -15.6 °C -18.6 °C 34384.8 hPa NNW 51.8 km/h 51.8 km/h 68 % 0 mm 0.0 W/m2 CLR
20:43 -15.6 °C -18.6 °C 34371.3 hPa NW 62.6 km/h 62.6 km/h 68 % 0 mm 0.0 W/m2 CLR
20:48 -15.6 °C -18.5 °C 34384.8 hPa NW 56.6 km/h 56.6 km/h 69 % 0 mm 0.0 W/m2 CLR
20:53 -15.6 °C -18.5 °C 34384.8 hPa NNW 50.7 km/h 50.7 km/h 69 % 0 mm 0.0 W/m2 CLR
20:58 -15.6 °C -18.5 °C 34384.8 hPa NNW 59.5 km/h 59.5 km/h 69 % 0 mm 0.0 W/m2 CLR
21:03 -15.6 °C -18.4 °C 34384.8 hPa North 47.6 km/h 47.6 km/h 70 % 0 mm 0.0 W/m2 CLR
21:08 -15.6 °C -18.4 °C 34395 hPa NW 47.6 km/h 47.6 km/h 70 % 0 mm 0.0 W/m2 CLR
21:13 -15.6 °C -18.4 °C 34395 hPa NNW 41.7 km/h 41.7 km/h 70 % 0 mm 0.0 W/m2 CLR
21:18 -15.6 °C -18.4 °C 34395 hPa North 38.8 km/h 38.8 km/h 70 % 0 mm 0.0 W/m2 CLR
21:21 -15.9 °C -18.7 °C 34395 hPa NW 47.6 km/h 47.6 km/h 70 % 0 mm 0.0 W/m2 CLR
21:26 -15.9 °C -18.7 °C 34395 hPa North 47.6 km/h 47.6 km/h 70 % 0 mm 0.0 W/m2 CLR
21:31 -15.9 °C -18.7 °C 34395 hPa North 49.2 km/h 49.2 km/h 70 % 0 mm 0.0 W/m2 CLR
21:36 -15.9 °C -18.6 °C 34405.1 hPa NNW 41.7 km/h 41.7 km/h 71 % 0 mm 0.0 W/m2 CLR
21:41 -15.9 °C -18.6 °C 34405.1 hPa NW 53.6 km/h 53.6 km/h 71 % 0 mm 0.0 W/m2 CLR
21:46 -15.9 °C -18.6 °C 34405.1 hPa NNW 57 km/h 57 km/h 71 % 0 mm 0.0 W/m2 CLR
21:51 -15.9 °C -18.4 °C 34405.1 hPa NNW 44.7 km/h 44.7 km/h 72 % 0 mm 0.0 W/m2 CLR
21:56 -15.9 °C -18.4 °C 34405.1 hPa NNW 56.6 km/h 56.6 km/h 73 % 0 mm 0.0 W/m2 CLR
22:01 -15.9 °C -18.4 °C 34418.7 hPa NNW 47.6 km/h 47.6 km/h 73 % 0 mm 0.0 W/m2 CLR
22:06 -15.9 °C -18.3 °C 34418.7 hPa NNW 50.7 km/h 50.7 km/h 74 % 0 mm 0.0 W/m2 CLR
22:11 -15.9 °C -18.3 °C 34418.7 hPa NNW 44.7 km/h 44.7 km/h 74 % 0 mm 0.0 W/m2 CLR
22:16 -16.2 °C -18.4 °C 34418.7 hPa NNW 59.5 km/h 59.5 km/h 75 % 0 mm 0.0 W/m2 CLR
22:21 -16.2 °C -18.4 °C 34418.7 hPa NNW 57 km/h 57 km/h 76 % 0 mm 0.0 W/m2 CLR
22:26 -16.2 °C -18.4 °C 34428.8 hPa NW 50.7 km/h 50.7 km/h 76 % 0 mm 0.0 W/m2 CLR
22:31 -16.2 °C -18.4 °C 34428.8 hPa NNW 50.7 km/h 50.7 km/h 76 % 0 mm 0.0 W/m2 CLR
22:36 -16.2 °C -18.2 °C 34428.8 hPa NNW 59.5 km/h 59.5 km/h 77 % 0 mm 0.0 W/m2 CLR
22:41 -16.2 °C -18.2 °C 34418.7 hPa NNW 50.7 km/h 50.7 km/h 77 % 0 mm 0.0 W/m2 CLR
22:46 -16.2 °C -18.2 °C 34418.7 hPa NW 50.7 km/h 50.7 km/h 77 % 0 mm 0.0 W/m2 CLR
22:51 -16.2 °C -18.2 °C 34428.8 hPa NNW 50.7 km/h 50.7 km/h 77 % 0 mm 0.0 W/m2 CLR
22:56 -16.2 °C -18.2 °C 34428.8 hPa NNW 47.6 km/h 47.6 km/h 77 % 0 mm 0.0 W/m2 CLR
23:01 -16.2 °C -18.2 °C 34428.8 hPa NNW 38.8 km/h 38.8 km/h 77 % 0 mm 0.0 W/m2 CLR
23:06 -16.2 °C -18.2 °C 34428.8 hPa NNW 35.7 km/h 35.7 km/h 77 % 0 mm 0.0 W/m2 CLR
23:11 -16.2 °C -18.2 °C 34428.8 hPa NNW 35.7 km/h 35.7 km/h 77 % 0 mm 0.0 W/m2 CLR
23:16 -16.2 °C -18.2 °C 34428.8 hPa North 41.7 km/h 41.7 km/h 77 % 0 mm 0.0 W/m2 CLR
23:21 -16.2 °C -18.2 °C 34428.8 hPa North 36.2 km/h 36.2 km/h 77 % 0 mm 0.0 W/m2 CLR
23:26 -16.2 °C -18.4 °C 34428.8 hPa North 35.7 km/h 35.7 km/h 76 % 0 mm 0.0 W/m2 CLR
23:31 -16.2 °C -18.2 °C 34428.8 hPa North 50.7 km/h 50.7 km/h 77 % 0 mm 0.0 W/m2 CLR
23:36 -16.2 °C -18.2 °C 34428.8 hPa NNW 50.7 km/h 50.7 km/h 77 % 0 mm 0.0 W/m2 CLR
23:41 -16.2 °C -18.2 °C 34442.4 hPa North 59.5 km/h 59.5 km/h 77 % 0 mm 0.0 W/m2 CLR
23:46 -16.2 °C -18.2 °C 34442.4 hPa NNW 38.8 km/h 38.8 km/h 77 % 0 mm 0.0 W/m2 CLR
23:51 -16.2 °C -18.2 °C 34442.4 hPa North 50.7 km/h 50.7 km/h 78 % 0 mm 0.0 W/m2 CLR
23:56 -16.2 °C -18.2 °C 34442.4 hPa North 38.8 km/h 38.8 km/h 78 % 0 mm 0.0 W/m2 CLR
Lo Temps de Massalio
Compliments of Weather Underground - 1.25 mb